sensor_id;sensor_type;location;lat;lon;timestamp;pressure;altitude;pressure_sealevel;temperature;humidity
20983;BME280;10650;51.528;6.748;2022-12-07T00:01:33;101520.25;;;6.65;86.66
20983;BME280;10650;51.528;6.748;2022-12-07T00:04:04;101512.28;;;6.63;86.71
20983;BME280;10650;51.528;6.748;2022-12-07T00:06:34;101523.03;;;6.69;86.75
20983;BME280;10650;51.528;6.748;2022-12-07T00:09:04;101517.75;;;6.71;86.21
20983;BME280;10650;51.528;6.748;2022-12-07T00:11:32;101519.44;;;6.67;86.30
20983;BME280;10650;51.528;6.748;2022-12-07T00:14:03;101508.88;;;6.72;86.50
20983;BME280;10650;51.528;6.748;2022-12-07T00:16:35;101516.91;;;6.73;86.52
20983;BME280;10650;51.528;6.748;2022-12-07T00:19:05;101511.47;;;6.67;86.14
20983;BME280;10650;51.528;6.748;2022-12-07T00:21:34;101510.59;;;6.67;86.47
20983;BME280;10650;51.528;6.748;2022-12-07T00:24:04;101511.50;;;6.69;86.55
20983;BME280;10650;51.528;6.748;2022-12-07T00:26:34;101516.78;;;6.67;86.22
20983;BME280;10650;51.528;6.748;2022-12-07T00:29:04;101507.97;;;6.68;86.38
20983;BME280;10650;51.528;6.748;2022-12-07T00:31:33;101510.53;;;6.64;86.45
20983;BME280;10650;51.528;6.748;2022-12-07T00:34:10;101506.97;;;6.63;86.39
20983;BME280;10650;51.528;6.748;2022-12-07T00:36:39;101502.50;;;6.61;86.59
20983;BME280;10650;51.528;6.748;2022-12-07T00:39:07;101498.09;;;6.63;86.78
20983;BME280;10650;51.528;6.748;2022-12-07T00:41:36;101496.25;;;6.58;86.28
20983;BME280;10650;51.528;6.748;2022-12-07T00:44:04;101490.09;;;6.60;86.68
20983;BME280;10650;51.528;6.748;2022-12-07T00:46:32;101502.53;;;6.62;86.63
20983;BME280;10650;51.528;6.748;2022-12-07T00:49:00;101499.00;;;6.63;86.80
20983;BME280;10650;51.528;6.748;2022-12-07T00:51:29;101501.59;;;6.60;86.16
20983;BME280;10650;51.528;6.748;2022-12-07T00:53:57;101492.72;;;6.58;86.17
20983;BME280;10650;51.528;6.748;2022-12-07T00:56:29;101497.06;;;6.54;86.51
20983;BME280;10650;51.528;6.748;2022-12-07T00:58:59;101491.78;;;6.56;86.71
20983;BME280;10650;51.528;6.748;2022-12-07T01:01:28;101488.31;;;6.60;86.47
20983;BME280;10650;51.528;6.748;2022-12-07T01:03:58;101494.47;;;6.57;86.28
20983;BME280;10650;51.528;6.748;2022-12-07T01:06:29;101493.63;;;6.60;86.64
20983;BME280;10650;51.528;6.748;2022-12-07T01:08:59;101477.75;;;6.63;86.37
20983;BME280;10650;51.528;6.748;2022-12-07T01:11:29;101483.94;;;6.61;86.32
20983;BME280;10650;51.528;6.748;2022-12-07T01:13:59;101479.38;;;6.55;86.11
20983;BME280;10650;51.528;6.748;2022-12-07T01:16:28;101481.06;;;6.51;86.21
20983;BME280;10650;51.528;6.748;2022-12-07T01:18:57;101483.69;;;6.50;86.27
20983;BME280;10650;51.528;6.748;2022-12-07T01:21:31;101487.25;;;6.52;86.21
20983;BME280;10650;51.528;6.748;2022-12-07T01:24:02;101493.44;;;6.49;86.13
20983;BME280;10650;51.528;6.748;2022-12-07T01:26:30;101488.97;;;6.47;86.25
20983;BME280;10650;51.528;6.748;2022-12-07T01:28:58;101488.06;;;6.46;86.29
20983;BME280;10650;51.528;6.748;2022-12-07T01:31:28;101490.59;;;6.41;86.51
20983;BME280;10650;51.528;6.748;2022-12-07T01:33:57;101492.38;;;6.41;86.43
20983;BME280;10650;51.528;6.748;2022-12-07T01:36:28;101489.69;;;6.39;86.61
20983;BME280;10650;51.528;6.748;2022-12-07T01:38:59;101483.59;;;6.44;86.75
20983;BME280;10650;51.528;6.748;2022-12-07T01:41:29;101492.44;;;6.44;86.40
20983;BME280;10650;51.528;6.748;2022-12-07T01:44:10;101489.84;;;6.47;86.51
20983;BME280;10650;51.528;6.748;2022-12-07T01:46:40;101498.69;;;6.46;86.34
20983;BME280;10650;51.528;6.748;2022-12-07T01:49:14;101497.81;;;6.49;86.17
20983;BME280;10650;51.528;6.748;2022-12-07T01:51:46;101486.31;;;6.48;86.06
20983;BME280;10650;51.528;6.748;2022-12-07T01:54:17;101491.56;;;6.44;85.82
20983;BME280;10650;51.528;6.748;2022-12-07T01:56:50;101493.25;;;6.41;86.04
20983;BME280;10650;51.528;6.748;2022-12-07T01:59:18;101487.97;;;6.43;85.92
20983;BME280;10650;51.528;6.748;2022-12-07T02:01:47;101488.84;;;6.40;86.02
20983;BME280;10650;51.528;6.748;2022-12-07T02:04:15;101487.00;;;6.38;85.96
20983;BME280;10650;51.528;6.748;2022-12-07T02:06:44;101487.88;;;6.37;85.53
20983;BME280;10650;51.528;6.748;2022-12-07T02:09:12;101485.25;;;6.38;85.83
20983;BME280;10650;51.528;6.748;2022-12-07T02:11:42;101482.59;;;6.38;85.48
20983;BME280;10650;51.528;6.748;2022-12-07T02:14:10;101480.75;;;6.36;85.80
20983;BME280;10650;51.528;6.748;2022-12-07T02:16:47;101481.69;;;6.36;85.67
20983;BME280;10650;51.528;6.748;2022-12-07T02:22:38;101477.16;;;6.32;85.59
20983;BME280;10650;51.528;6.748;2022-12-07T02:25:23;101470.03;;;6.30;85.53
20983;BME280;10650;51.528;6.748;2022-12-07T02:28:02;101475.31;;;6.28;85.63
20983;BME280;10650;51.528;6.748;2022-12-07T02:30:35;101471.66;;;6.23;85.66
20983;BME280;10650;51.528;6.748;2022-12-07T02:33:11;101479.34;;;6.09;85.68
20983;BME280;10650;51.528;6.748;2022-12-07T02:35:44;101481.00;;;6.04;86.03
20983;BME280;10650;51.528;6.748;2022-12-07T02:38:19;101484.41;;;5.98;85.90
20983;BME280;10650;51.528;6.748;2022-12-07T02:40:54;101486.13;;;5.96;86.09
20983;BME280;10650;51.528;6.748;2022-12-07T02:43:24;101481.59;;;5.92;86.13
20983;BME280;10650;51.528;6.748;2022-12-07T02:45:57;101487.66;;;5.86;86.25
20983;BME280;10650;51.528;6.748;2022-12-07T02:48:27;101486.66;;;5.81;85.84
20983;BME280;10650;51.528;6.748;2022-12-07T02:50:56;101486.50;;;5.74;86.51
20983;BME280;10650;51.528;6.748;2022-12-07T02:53:35;101482.78;;;5.67;86.66
20983;BME280;10650;51.528;6.748;2022-12-07T02:56:09;101484.59;;;5.68;86.89
20983;BME280;10650;51.528;6.748;2022-12-07T02:58:50;101489.91;;;5.68;86.71
20983;BME280;10650;51.528;6.748;2022-12-07T03:01:28;101484.56;;;5.66;86.38
20983;BME280;10650;51.528;6.748;2022-12-07T03:04:11;101475.56;;;5.60;86.30
20983;BME280;10650;51.528;6.748;2022-12-07T03:06:49;101479.16;;;5.62;86.65
20983;BME280;10650;51.528;6.748;2022-12-07T03:09:22;101479.97;;;5.59;86.38
20983;BME280;10650;51.528;6.748;2022-12-07T03:12:00;101485.25;;;5.58;86.40
20983;BME280;10650;51.528;6.748;2022-12-07T03:14:31;101481.69;;;5.57;86.86
20983;BME280;10650;51.528;6.748;2022-12-07T03:17:06;101492.13;;;5.49;86.66
20983;BME280;10650;51.528;6.748;2022-12-07T03:19:36;101486.72;;;5.45;86.96
20983;BME280;10650;51.528;6.748;2022-12-07T03:22:07;101488.47;;;5.46;87.13
20983;BME280;10650;51.528;6.748;2022-12-07T03:24:46;101480.47;;;5.43;86.83
20983;BME280;10650;51.528;6.748;2022-12-07T03:27:18;101484.91;;;5.44;86.47
20983;BME280;10650;51.528;6.748;2022-12-07T03:29:51;101486.63;;;5.42;86.59
20983;BME280;10650;51.528;6.748;2022-12-07T03:32:26;101484.97;;;5.47;86.70
20983;BME280;10650;51.528;6.748;2022-12-07T03:35:00;101487.56;;;5.44;86.56
20983;BME280;10650;51.528;6.748;2022-12-07T03:37:33;101480.53;;;5.46;86.50
20983;BME280;10650;51.528;6.748;2022-12-07T03:40:07;101484.03;;;5.43;86.37
20983;BME280;10650;51.528;6.748;2022-12-07T03:42:39;101477.78;;;5.41;86.25
20983;BME280;10650;51.528;6.748;2022-12-07T03:45:08;101480.59;;;5.47;86.94
20983;BME280;10650;51.528;6.748;2022-12-07T03:47:44;101474.59;;;5.56;86.40
20983;BME280;10650;51.528;6.748;2022-12-07T03:50:20;101471.22;;;5.62;86.28
20983;BME280;10650;51.528;6.748;2022-12-07T03:52:53;101474.84;;;5.67;86.47
20983;BME280;10650;51.528;6.748;2022-12-07T03:55:26;101474.84;;;5.67;85.92
20983;BME280;10650;51.528;6.748;2022-12-07T03:58:00;101472.06;;;5.61;85.80
20983;BME280;10650;51.528;6.748;2022-12-07T04:00:29;101469.50;;;5.65;85.88
20983;BME280;10650;51.528;6.748;2022-12-07T04:02:59;101474.81;;;5.65;85.81
20983;BME280;10650;51.528;6.748;2022-12-07T04:05:29;101478.28;;;5.63;85.64
20983;BME280;10650;51.528;6.748;2022-12-07T04:07:58;101462.31;;;5.60;85.70
20983;BME280;10650;51.528;6.748;2022-12-07T04:10:26;101464.94;;;5.60;85.67
20983;BME280;10650;51.528;6.748;2022-12-07T04:12:55;101479.03;;;5.57;85.54
20983;BME280;10650;51.528;6.748;2022-12-07T04:15:23;101478.13;;;5.55;85.97
20983;BME280;10650;51.528;6.748;2022-12-07T04:17:51;101475.47;;;5.55;85.59
20983;BME280;10650;51.528;6.748;2022-12-07T04:20:23;101477.81;;;5.43;85.69
20983;BME280;10650;51.528;6.748;2022-12-07T04:22:51;101474.22;;;5.39;85.92
20983;BME280;10650;51.528;6.748;2022-12-07T04:25:19;101471.56;;;5.39;86.33
20983;BME280;10650;51.528;6.748;2022-12-07T04:27:47;101475.94;;;5.38;86.51
20983;BME280;10650;51.528;6.748;2022-12-07T04:30:15;101477.56;;;5.32;85.64
20983;BME280;10650;51.528;6.748;2022-12-07T04:32:43;101474.00;;;5.31;86.29
20983;BME280;10650;51.528;6.748;2022-12-07T04:35:12;101467.78;;;5.29;86.15
20983;BME280;10650;51.528;6.748;2022-12-07T04:37:41;101472.22;;;5.30;86.00
20983;BME280;10650;51.528;6.748;2022-12-07T04:40:10;101470.28;;;5.23;86.20
20983;BME280;10650;51.528;6.748;2022-12-07T04:42:41;101470.38;;;5.26;86.66
20983;BME280;10650;51.528;6.748;2022-12-07T04:45:10;101472.06;;;5.24;86.26
20983;BME280;10650;51.528;6.748;2022-12-07T04:47:38;101475.66;;;5.26;86.63
20983;BME280;10650;51.528;6.748;2022-12-07T04:50:09;101466.09;;;5.33;86.88
20983;BME280;10650;51.528;6.748;2022-12-07T04:52:37;101472.34;;;5.35;86.35
20983;BME280;10650;51.528;6.748;2022-12-07T04:55:07;101471.44;;;5.34;86.31
20983;BME280;10650;51.528;6.748;2022-12-07T04:57:35;101472.44;;;5.40;86.27
20983;BME280;10650;51.528;6.748;2022-12-07T05:00:05;101476.91;;;5.42;85.96
20983;BME280;10650;51.528;6.748;2022-12-07T05:02:33;101473.47;;;5.45;85.95
20983;BME280;10650;51.528;6.748;2022-12-07T05:05:01;101470.81;;;5.45;86.10
20983;BME280;10650;51.528;6.748;2022-12-07T05:07:29;101461.84;;;5.40;85.79
20983;BME280;10650;51.528;6.748;2022-12-07T05:10:00;101466.22;;;5.37;86.04
20983;BME280;10650;51.528;6.748;2022-12-07T05:12:36;101468.91;;;5.39;85.78
20983;BME280;10650;51.528;6.748;2022-12-07T05:15:12;101461.91;;;5.43;85.83
20983;BME280;10650;51.528;6.748;2022-12-07T05:17:40;101464.63;;;5.46;85.68
20983;BME280;10650;51.528;6.748;2022-12-07T05:20:19;101458.47;;;5.47;85.70
20983;BME280;10650;51.528;6.748;2022-12-07T05:22:55;101467.28;;;5.46;85.43
20983;BME280;10650;51.528;6.748;2022-12-07T05:25:25;101468.13;;;5.43;85.46
20983;BME280;10650;51.528;6.748;2022-12-07T05:27:56;101464.59;;;5.44;85.62
20983;BME280;10650;51.528;6.748;2022-12-07T05:30:27;101472.47;;;5.41;85.12
20983;BME280;10650;51.528;6.748;2022-12-07T05:32:56;101474.16;;;5.37;85.36
20983;BME280;10650;51.528;6.748;2022-12-07T05:35:27;101471.53;;;5.37;85.32
20983;BME280;10650;51.528;6.748;2022-12-07T05:38:04;101467.94;;;5.37;85.82
20983;BME280;10650;51.528;6.748;2022-12-07T05:40:32;101468.91;;;5.39;85.50
20983;BME280;10650;51.528;6.748;2022-12-07T05:43:04;101464.59;;;5.44;85.26
20983;BME280;10650;51.528;6.748;2022-12-07T05:45:38;101464.63;;;5.46;85.55
20983;BME280;10650;51.528;6.748;2022-12-07T05:48:25;101461.00;;;5.41;85.17
20983;BME280;10650;51.528;6.748;2022-12-07T05:50:54;101453.84;;;5.38;85.28
20983;BME280;10650;51.528;6.748;2022-12-07T05:53:24;101459.19;;;5.40;85.29
20983;BME280;10650;51.528;6.748;2022-12-07T05:55:55;101456.50;;;5.38;85.09
20983;BME280;10650;51.528;6.748;2022-12-07T05:58:25;101456.50;;;5.38;85.23
20983;BME280;10650;51.528;6.748;2022-12-07T06:01:10;101457.31;;;5.35;85.14
20983;BME280;10650;51.528;6.748;2022-12-07T06:04:04;101458.19;;;5.34;85.13
20983;BME280;10650;51.528;6.748;2022-12-07T06:06:45;101463.44;;;5.33;85.14
20983;BME280;10650;51.528;6.748;2022-12-07T06:09:28;101463.56;;;5.37;85.44
20983;BME280;10650;51.528;6.748;2022-12-07T06:12:02;101457.34;;;5.37;85.24
20983;BME280;10650;51.528;6.748;2022-12-07T06:14:50;101457.38;;;5.38;85.24
20983;BME280;10650;51.528;6.748;2022-12-07T06:17:19;101457.38;;;5.38;85.37
20983;BME280;10650;51.528;6.748;2022-12-07T06:19:47;101457.50;;;5.42;84.92
20983;BME280;10650;51.528;6.748;2022-12-07T06:22:15;101466.31;;;5.42;84.75
20983;BME280;10650;51.528;6.748;2022-12-07T06:24:44;101474.13;;;5.36;84.87
20983;BME280;10650;51.528;6.748;2022-12-07T06:27:13;101476.75;;;5.34;85.14
20983;BME280;10650;51.528;6.748;2022-12-07T06:29:41;101472.38;;;5.36;85.14
20983;BME280;10650;51.528;6.748;2022-12-07T06:32:11;101468.66;;;5.30;85.05
20983;BME280;10650;51.528;6.748;2022-12-07T06:34:39;101478.38;;;5.29;85.29
20983;BME280;10650;51.528;6.748;2022-12-07T06:37:10;101476.63;;;5.30;85.12
20983;BME280;10650;51.528;6.748;2022-12-07T06:54:59;101482.69;;;5.26;85.27
20983;BME280;10650;51.528;6.748;2022-12-07T07:22:16;101474.00;;;5.31;85.20
20983;BME280;10650;51.528;6.748;2022-12-07T07:24:44;101478.44;;;5.32;85.15
20983;BME280;10650;51.528;6.748;2022-12-07T07:27:13;101476.69;;;5.33;84.70
20983;BME280;10650;51.528;6.748;2022-12-07T07:29:41;101481.13;;;5.34;84.83
20983;BME280;10650;51.528;6.748;2022-12-07T07:32:09;101480.97;;;5.26;84.88
20983;BME280;10650;51.528;6.748;2022-12-07T07:34:39;101479.09;;;5.22;84.72
20983;BME280;10650;51.528;6.748;2022-12-07T07:37:08;101481.72;;;5.22;84.75
20983;BME280;10650;51.528;6.748;2022-12-07T07:39:42;101473.84;;;5.25;84.70
20983;BME280;10650;51.528;6.748;2022-12-07T07:42:10;101485.28;;;5.23;84.40
20983;BME280;10650;51.528;6.748;2022-12-07T07:44:39;101482.69;;;5.26;84.63
20983;BME280;10650;51.528;6.748;2022-12-07T07:47:07;101480.16;;;5.29;84.84
20983;BME280;10650;51.528;6.748;2022-12-07T07:49:39;101489.09;;;5.34;84.53
20983;BME280;10650;51.528;6.748;2022-12-07T07:52:30;101476.75;;;5.34;84.61
20983;BME280;10650;51.528;6.748;2022-12-07T07:55:19;101483.81;;;5.35;84.52
20983;BME280;10650;51.528;6.748;2022-12-07T07:57:59;101483.84;;;5.37;84.68
20983;BME280;10650;51.528;6.748;2022-12-07T08:00:45;101482.19;;;5.41;84.78
20983;BME280;10650;51.528;6.748;2022-12-07T08:03:55;101476.13;;;5.46;84.26
20983;BME280;10650;51.528;6.748;2022-12-07T08:06:57;101483.03;;;5.40;83.82
20983;BME280;10650;51.528;6.748;2022-12-07T08:10:13;101485.75;;;5.43;84.45
20983;BME280;10650;51.528;6.748;2022-12-07T08:12:55;101489.38;;;5.46;84.12
20983;BME280;10650;51.528;6.748;2022-12-07T08:15:57;101491.13;;;5.46;84.17
20983;BME280;10650;51.528;6.748;2022-12-07T08:18:56;101489.22;;;5.40;84.13
20983;BME280;10650;51.528;6.748;2022-12-07T08:21:38;101487.41;;;5.37;84.06
20983;BME280;10650;51.528;6.748;2022-12-07T08:24:47;101487.28;;;5.33;83.86
20983;BME280;10650;51.528;6.748;2022-12-07T08:28:06;101495.13;;;5.28;84.10
20983;BME280;10650;51.528;6.748;2022-12-07T08:30:43;101503.06;;;5.28;84.26
20983;BME280;10650;51.528;6.748;2022-12-07T08:33:39;101490.44;;;5.16;84.16
20983;BME280;10650;51.528;6.748;2022-12-07T08:36:42;101501.88;;;5.15;84.36
20983;BME280;10650;51.528;6.748;2022-12-07T08:39:18;101501.97;;;5.20;84.61
20983;BME280;10650;51.528;6.748;2022-12-07T08:42:11;101504.69;;;5.22;84.31
20983;BME280;10650;51.528;6.748;2022-12-07T08:48:30;101509.13;;;5.23;84.53
20983;BME280;10650;51.528;6.748;2022-12-07T08:51:42;101510.00;;;5.22;84.57
20983;BME280;10650;51.528;6.748;2022-12-07T08:55:33;101497.59;;;5.20;84.89
20983;BME280;10650;51.528;6.748;2022-12-07T08:58:05;101500.13;;;5.16;85.04
20983;BME280;10650;51.528;6.748;2022-12-07T09:01:22;101497.59;;;5.20;84.62
20983;BME280;10650;51.528;6.748;2022-12-07T09:04:13;101496.06;;;5.30;84.82
20983;BME280;10650;51.528;6.748;2022-12-07T09:07:53;101499.81;;;5.40;84.52
20983;BME280;10650;51.528;6.748;2022-12-07T09:11:07;101498.25;;;5.48;84.70
20983;BME280;10650;51.528;6.748;2022-12-07T09:14:03;101493.19;;;5.58;84.45
20983;BME280;10650;51.528;6.748;2022-12-07T09:17:22;101502.31;;;5.69;84.15
20983;BME280;10650;51.528;6.748;2022-12-07T09:20:43;101508.59;;;5.74;83.78
20983;BME280;10650;51.528;6.748;2022-12-07T09:23:53;101505.06;;;5.74;84.10
20983;BME280;10650;51.528;6.748;2022-12-07T09:27:41;101507.59;;;5.69;83.77
20983;BME280;10650;51.528;6.748;2022-12-07T09:31:06;101503.44;;;5.80;83.85
20983;BME280;10650;51.528;6.748;2022-12-07T09:34:21;101505.28;;;5.84;83.47
20983;BME280;10650;51.528;6.748;2022-12-07T09:37:24;101500.97;;;5.89;83.56
20983;BME280;10650;51.528;6.748;2022-12-07T09:40:24;101508.16;;;5.94;83.25
20983;BME280;10650;51.528;6.748;2022-12-07T09:43:01;101504.50;;;5.88;82.96
20983;BME280;10650;51.528;6.748;2022-12-07T09:46:08;101499.94;;;5.83;83.20
20983;BME280;10650;51.528;6.748;2022-12-07T09:52:51;101492.25;;;5.94;82.83
20983;BME280;10650;51.528;6.748;2022-12-07T09:55:26;101493.25;;;5.99;83.06
20983;BME280;10650;51.528;6.748;2022-12-07T09:57:55;101483.63;;;6.02;82.33
20983;BME280;10650;51.528;6.748;2022-12-07T10:00:26;101487.28;;;6.08;82.73
20983;BME280;10650;51.528;6.748;2022-12-07T10:02:57;101487.34;;;6.11;82.21
20983;BME280;10650;51.528;6.748;2022-12-07T10:05:42;101490.97;;;6.16;82.71
20983;BME280;10650;51.528;6.748;2022-12-07T10:08:13;101490.13;;;6.18;82.36
20983;BME280;10650;51.528;6.748;2022-12-07T10:10:45;101484.06;;;6.24;82.50
20983;BME280;10650;51.528;6.748;2022-12-07T10:13:19;101478.91;;;6.32;82.21
20983;BME280;10650;51.528;6.748;2022-12-07T10:15:54;101484.34;;;6.38;81.73
20983;BME280;10650;51.528;6.748;2022-12-07T10:18:34;101475.66;;;6.45;81.80
20983;BME280;10650;51.528;6.748;2022-12-07T10:21:11;101474.09;;;6.55;82.03
20983;BME280;10650;51.528;6.748;2022-12-07T10:24:03;101476.13;;;6.70;81.93
20983;BME280;10650;51.528;6.748;2022-12-07T10:26:35;101472.75;;;6.80;81.56
20983;BME280;10650;51.528;6.748;2022-12-07T10:29:17;101463.09;;;6.84;80.86
20983;BME280;10650;51.528;6.748;2022-12-07T10:31:54;101470.25;;;6.88;80.29
20983;BME280;10650;51.528;6.748;2022-12-07T10:34:32;101458.69;;;6.86;79.75
20983;BME280;10650;51.528;6.748;2022-12-07T10:37:14;101451.69;;;6.89;79.78
20983;BME280;10650;51.528;6.748;2022-12-07T10:39:49;101454.47;;;6.97;79.99
20983;BME280;10650;51.528;6.748;2022-12-07T10:42:21;101453.41;;;6.87;79.19
20983;BME280;10650;51.528;6.748;2022-12-07T10:45:06;101444.59;;;6.90;79.00
20983;BME280;10650;51.528;6.748;2022-12-07T10:47:43;101448.31;;;7.00;79.02
20983;BME280;10650;51.528;6.748;2022-12-07T10:50:38;101448.38;;;7.04;78.24
20983;BME280;10650;51.528;6.748;2022-12-07T10:56:44;101438.63;;;7.03;77.46
20983;BME280;10650;51.528;6.748;2022-12-07T11:51:20;101380.19;;;7.66;75.09
20983;BME280;10650;51.528;6.748;2022-12-07T11:54:34;101390.00;;;7.70;74.68
20983;BME280;10650;51.528;6.748;2022-12-07T11:57:30;101386.47;;;7.71;74.27
20983;BME280;10650;51.528;6.748;2022-12-07T12:00:05;101385.63;;;7.74;74.65
20983;BME280;10650;51.528;6.748;2022-12-07T12:02:38;101390.88;;;7.71;74.55
20983;BME280;10650;51.528;6.748;2022-12-07T12:05:15;101384.72;;;7.73;75.15
20983;BME280;10650;51.528;6.748;2022-12-07T12:07:46;101376.84;;;7.79;75.25
20983;BME280;10650;51.528;6.748;2022-12-07T12:10:47;101381.19;;;7.73;74.62
20983;BME280;10650;51.528;6.748;2022-12-07T12:13:35;101380.38;;;7.78;75.10
20983;BME280;10650;51.528;6.748;2022-12-07T12:16:50;101377.66;;;7.74;74.36
20983;BME280;10650;51.528;6.748;2022-12-07T12:19:33;101370.56;;;7.76;74.65
20983;BME280;10650;51.528;6.748;2022-12-07T12:22:14;101375.94;;;7.79;75.17
20983;BME280;10650;51.528;6.748;2022-12-07T12:25:56;101379.50;;;7.79;74.93
20983;BME280;10650;51.528;6.748;2022-12-07T12:27:58;101379.44;;;7.76;74.48
20983;BME280;10650;51.528;6.748;2022-12-07T12:33:16;101365.28;;;7.79;74.05
20983;BME280;10650;51.528;6.748;2022-12-07T12:38:48;101361.75;;;7.80;74.16
20983;BME280;10650;51.528;6.748;2022-12-07T12:45:04;101353.84;;;7.86;74.28
20983;BME280;10650;51.528;6.748;2022-12-07T12:47:53;101362.78;;;7.91;74.85
20983;BME280;10650;51.528;6.748;2022-12-07T12:50:23;101357.47;;;7.91;74.31
20983;BME280;10650;51.528;6.748;2022-12-07T12:52:55;101346.84;;;7.94;74.72
20983;BME280;10650;51.528;6.748;2022-12-07T12:58:31;101349.38;;;7.84;73.88
20983;BME280;10650;51.528;6.748;2022-12-07T13:04:38;101343.22;;;7.88;74.30
20983;BME280;10650;51.528;6.748;2022-12-07T13:10:43;101337.88;;;7.85;73.83
20983;BME280;10650;51.528;6.748;2022-12-07T13:13:32;101341.38;;;7.82;73.71
20983;BME280;10650;51.528;6.748;2022-12-07T13:19:55;101343.00;;;7.71;73.47
20983;BME280;10650;51.528;6.748;2022-12-07T13:22:44;101339.41;;;7.66;73.66
20983;BME280;10650;51.528;6.748;2022-12-07T13:25:21;101340.31;;;7.66;73.98
20983;BME280;10650;51.528;6.748;2022-12-07T13:27:57;101338.53;;;7.65;74.29
20983;BME280;10650;51.528;6.748;2022-12-07T13:30:33;101334.09;;;7.64;73.81
20983;BME280;10650;51.528;6.748;2022-12-07T13:33:12;101326.97;;;7.61;74.43
20983;BME280;10650;51.528;6.748;2022-12-07T13:35:45;101314.38;;;7.47;74.38
20983;BME280;10650;51.528;6.748;2022-12-07T13:38:23;101311.63;;;7.42;74.53
20983;BME280;10650;51.528;6.748;2022-12-07T13:41:04;101306.25;;;7.37;74.33
20983;BME280;10650;51.528;6.748;2022-12-07T13:43:42;101302.69;;;7.35;74.78
20983;BME280;10650;51.528;6.748;2022-12-07T13:46:11;101303.53;;;7.33;74.40
20983;BME280;10650;51.528;6.748;2022-12-07T13:48:46;101291.97;;;7.29;74.65
20983;BME280;10650;51.528;6.748;2022-12-07T13:51:18;101302.59;;;7.27;74.76
20983;BME280;10650;51.528;6.748;2022-12-07T13:53:48;101297.28;;;7.29;74.69
20983;BME280;10650;51.528;6.748;2022-12-07T13:56:17;101291.00;;;7.22;74.71
20983;BME280;10650;51.528;6.748;2022-12-07T13:58:49;101291.84;;;7.20;74.75
20983;BME280;10650;51.528;6.748;2022-12-07T14:01:18;101287.38;;;7.17;74.51
20983;BME280;10650;51.528;6.748;2022-12-07T14:03:46;101286.50;;;7.17;74.30
20983;BME280;10650;51.528;6.748;2022-12-07T14:06:18;101283.91;;;7.21;74.52
20983;BME280;10650;51.528;6.748;2022-12-07T14:08:47;101283.91;;;7.21;74.46
20983;BME280;10650;51.528;6.748;2022-12-07T14:11:28;101276.81;;;7.23;74.43
20983;BME280;10650;51.528;6.748;2022-12-07T14:13:59;101283.91;;;7.23;74.76
20983;BME280;10650;51.528;6.748;2022-12-07T14:16:32;101278.66;;;7.27;74.60
20983;BME280;10650;51.528;6.748;2022-12-07T14:19:03;101275.13;;;7.27;74.27
20983;BME280;10650;51.528;6.748;2022-12-07T14:21:33;101275.97;;;7.26;74.28
20983;BME280;10650;51.528;6.748;2022-12-07T14:24:10;101268.78;;;7.17;74.03
20983;BME280;10650;51.528;6.748;2022-12-07T14:26:39;101272.31;;;7.18;74.47
20983;BME280;10650;51.528;6.748;2022-12-07T14:29:33;101267.84;;;7.12;74.38
20983;BME280;10650;51.528;6.748;2022-12-07T14:32:20;101266.94;;;7.12;74.96
20983;BME280;10650;51.528;6.748;2022-12-07T14:34:57;101262.44;;;7.06;74.76
20983;BME280;10650;51.528;6.748;2022-12-07T14:37:28;101262.41;;;7.04;75.18
20983;BME280;10650;51.528;6.748;2022-12-07T14:39:57;101261.50;;;7.02;75.33
20983;BME280;10650;51.528;6.748;2022-12-07T14:42:30;101255.28;;;7.02;74.99
20983;BME280;10650;51.528;6.748;2022-12-07T14:45:00;101255.25;;;7.00;75.53
20983;BME280;10650;51.528;6.748;2022-12-07T14:47:29;101244.59;;;6.97;75.65
20983;BME280;10650;51.528;6.748;2022-12-07T14:50:22;101242.81;;;6.96;75.91
20983;BME280;10650;51.528;6.748;2022-12-07T14:52:54;101246.34;;;6.95;75.79
20983;BME280;10650;51.528;6.748;2022-12-07T14:55:43;101245.41;;;6.91;76.08
20983;BME280;10650;51.528;6.748;2022-12-07T14:58:13;101248.00;;;6.87;75.92
20983;BME280;10650;51.528;6.748;2022-12-07T15:00:44;101245.34;;;6.87;76.33
20983;BME280;10650;51.528;6.748;2022-12-07T15:03:12;101244.47;;;6.86;76.17
20983;BME280;10650;51.528;6.748;2022-12-07T15:05:41;101254.03;;;6.75;76.14
20983;BME280;10650;51.528;6.748;2022-12-07T15:08:10;101251.41;;;6.77;76.15
20983;BME280;10650;51.528;6.748;2022-12-07T15:10:42;101259.38;;;6.77;76.30
20983;BME280;10650;51.528;6.748;2022-12-07T15:13:12;101254.03;;;6.73;76.42
20983;BME280;10650;51.528;6.748;2022-12-07T15:16:18;101252.25;;;6.75;76.54
20983;BME280;10650;51.528;6.748;2022-12-07T15:18:48;101241.59;;;6.71;76.33
20983;BME280;10650;51.528;6.748;2022-12-07T15:21:40;101247.72;;;6.67;76.44
20983;BME280;10650;51.528;6.748;2022-12-07T15:24:09;101252.06;;;6.63;76.86
20983;BME280;10650;51.528;6.748;2022-12-07T15:26:39;101245.91;;;6.66;77.18
20983;BME280;10650;51.528;6.748;2022-12-07T15:29:09;101248.56;;;6.66;76.83
20983;BME280;10650;51.528;6.748;2022-12-07T15:31:39;101250.25;;;6.59;77.03
20983;BME280;10650;51.528;6.748;2022-12-07T15:34:24;101247.66;;;6.62;77.17
20983;BME280;10650;51.528;6.748;2022-12-07T15:37:03;101244.13;;;6.65;77.00
20983;BME280;10650;51.528;6.748;2022-12-07T15:39:31;101248.59;;;6.67;77.39
20983;BME280;10650;51.528;6.748;2022-12-07T15:42:00;101246.84;;;6.68;77.14
20983;BME280;10650;51.528;6.748;2022-12-07T15:44:29;101242.41;;;6.67;76.92
20983;BME280;10650;51.528;6.748;2022-12-07T15:47:16;101239.69;;;6.62;76.93
20983;BME280;10650;51.528;6.748;2022-12-07T15:49:44;101239.69;;;6.62;77.37
20983;BME280;10650;51.528;6.748;2022-12-07T15:52:12;101235.22;;;6.61;77.70
20983;BME280;10650;51.528;6.748;2022-12-07T15:54:40;101237.88;;;6.61;77.66
20983;BME280;10650;51.528;6.748;2022-12-07T15:57:09;101232.63;;;6.64;77.72
20983;BME280;10650;51.528;6.748;2022-12-07T15:59:38;101234.47;;;6.68;77.43
20983;BME280;10650;51.528;6.748;2022-12-07T16:02:07;101227.38;;;6.70;77.82